createdAt,value
2022-09-10T00:01:27.318Z,94421.03
2022-09-10T00:03:56.619Z,94406.72
2022-09-10T00:06:27.696Z,94407.75
2022-09-10T00:08:57.791Z,94405.03
2022-09-10T00:11:27.006Z,94410.56
2022-09-10T00:13:57.368Z,94411.69
2022-09-10T00:16:26.468Z,94412.25
2022-09-10T00:18:54.907Z,94413.28
2022-09-10T00:21:23.018Z,94416.16
2022-09-10T00:23:51.004Z,94419.13
2022-09-10T00:26:21.876Z,94419.84
2022-09-10T00:28:50.038Z,94419.44
2022-09-10T00:31:19.980Z,94419.63
2022-09-10T00:33:47.944Z,94422.38
2022-09-10T00:36:17.344Z,94413.19
2022-09-10T00:38:45.293Z,94418.63
2022-09-10T00:41:14.348Z,94420.31
2022-09-10T00:43:50.596Z,94415.91
2022-09-10T00:46:26.442Z,94412.44
2022-09-10T00:48:57.640Z,94416.78
2022-09-10T00:51:30.982Z,94422.06
2022-09-10T00:54:00.449Z,94412.69
2022-09-10T00:56:29.611Z,94406.03
2022-09-10T00:58:57.979Z,94403.47
2022-09-10T01:01:27.324Z,94407.97
2022-09-10T01:03:56.811Z,94406.03
2022-09-10T01:06:25.215Z,94408.75
2022-09-10T01:08:53.510Z,94399.81
2022-09-10T01:11:38.815Z,94402.38
2022-09-10T01:14:23.250Z,94393.16
2022-09-10T01:17:04.155Z,94398.13
2022-09-10T01:20:17.936Z,94404.75
2022-09-10T01:23:17.581Z,94393.56
2022-09-10T01:25:57.224Z,94392.28
2022-09-10T01:28:31.753Z,94385.72
2022-09-10T01:31:10.664Z,94384.50
2022-09-10T01:33:46.851Z,94376.03
2022-09-10T01:36:19.313Z,94362.44
2022-09-10T01:38:50.042Z,94373.22
2022-09-10T01:41:17.947Z,94369.13
2022-09-10T01:43:47.281Z,94361.09
2022-09-10T01:46:26.753Z,94360.09
2022-09-10T01:49:10.906Z,94364.88
2022-09-10T01:51:54.147Z,94364.09
2022-09-10T01:54:38.167Z,94370.66
2022-09-10T01:57:16.617Z,94370.16
2022-09-10T01:59:54.991Z,94371.34
2022-09-10T02:02:27.245Z,94381.25
2022-09-10T02:04:56.412Z,94386.97
2022-09-10T02:07:27.131Z,94391.06
2022-09-10T02:09:55.714Z,94390.16
2022-09-10T02:12:24.724Z,94398.03
2022-09-10T02:15:07.368Z,94384.53
2022-09-10T02:17:38.315Z,94383.34
2022-09-10T02:20:09.353Z,94373.03
2022-09-10T02:22:39.911Z,94364.63
2022-09-10T02:25:09.936Z,94375.91
2022-09-10T02:27:38.487Z,94368.06
2022-09-10T02:30:10.173Z,94366.56
2022-09-10T02:32:38.040Z,94374.28
2022-09-10T02:35:06.767Z,94363.34
2022-09-10T02:37:34.769Z,94366.31
2022-09-10T02:40:03.027Z,94368.72
2022-09-10T02:42:30.955Z,94375.75
2022-09-10T02:44:58.824Z,94382.22
2022-09-10T02:47:28.862Z,94380.78
2022-09-10T02:49:56.778Z,94380.78
2022-09-10T02:52:24.719Z,94372.41
2022-09-10T02:54:52.604Z,94378.91
2022-09-10T02:57:21.143Z,94366.16
2022-09-10T02:59:49.303Z,94375.69
2022-09-10T03:02:17.214Z,94371.13
2022-09-10T03:04:46.542Z,94373.34
2022-09-10T03:07:17.149Z,94380.69
2022-09-10T03:09:45.076Z,94382.88
2022-09-10T03:12:13.634Z,94377.78
2022-09-10T03:14:41.520Z,94381.28
2022-09-10T03:17:09.706Z,94384.72
2022-09-10T03:19:37.885Z,94382.56
2022-09-10T03:22:07.428Z,94379.44
2022-09-10T03:24:35.801Z,94384.22
2022-09-10T03:27:03.698Z,94379.31
2022-09-10T03:29:31.696Z,94369.78
2022-09-10T03:31:59.605Z,94363.44
2022-09-10T03:34:27.568Z,94369.28
2022-09-10T03:36:55.600Z,94367.44
2022-09-10T03:39:24.883Z,94361.19
2022-09-10T03:41:52.803Z,94358.13
2022-09-10T03:44:20.703Z,94357.09
2022-09-10T03:46:51.078Z,94349.59
2022-09-10T03:49:19.057Z,94354.66
2022-09-10T03:51:48.216Z,94355.09
2022-09-10T03:54:16.186Z,94346.16
2022-09-10T03:56:45.494Z,94341.84
2022-09-10T03:59:13.867Z,94338.19
2022-09-10T04:01:42.507Z,94328.09
2022-09-10T04:04:10.401Z,94327.88
2022-09-10T04:06:40.549Z,94340.03
2022-09-10T04:09:08.493Z,94341.56
2022-09-10T04:11:36.388Z,94345.81
2022-09-10T04:14:05.724Z,94335.19
2022-09-10T04:16:33.595Z,94337.25
2022-09-10T04:19:01.563Z,94341.44
2022-09-10T04:21:29.574Z,94348.88
2022-09-10T04:23:59.310Z,94351.81
2022-09-10T04:26:27.211Z,94362.03
2022-09-10T04:28:55.170Z,94371.41
2022-09-10T04:31:24.546Z,94373.34
2022-09-10T04:33:52.563Z,94386.06
2022-09-10T04:36:20.659Z,94389.28
2022-09-10T04:38:48.973Z,94381.69
2022-09-10T04:41:18.222Z,94372.88
2022-09-10T04:43:46.762Z,94360.25
2022-09-10T04:46:14.697Z,94364.78
2022-09-10T04:48:43.976Z,94369.03
2022-09-10T04:51:17.761Z,94366.56
2022-09-10T04:53:46.812Z,94348.00
2022-09-10T04:56:15.564Z,94335.47
2022-09-10T04:58:44.125Z,94343.38
2022-09-10T05:01:12.501Z,94339.69
2022-09-10T05:03:40.674Z,94345.38
2022-09-10T05:06:10.065Z,94335.28
2022-09-10T05:08:38.065Z,94336.09
2022-09-10T05:11:06.367Z,94343.31
2022-09-10T05:13:34.279Z,94338.81
2022-09-10T05:16:02.664Z,94351.94
2022-09-10T05:18:30.689Z,94358.66
2022-09-10T05:20:58.658Z,94363.47
2022-09-10T05:23:28.086Z,94366.38
2022-09-10T05:25:56.782Z,94368.44
2022-09-10T05:28:24.721Z,94378.63
2022-09-10T05:30:52.660Z,94360.16
2022-09-10T05:33:20.621Z,94366.38
2022-09-10T05:35:51.691Z,94376.94
2022-09-10T05:38:20.367Z,94360.28
2022-09-10T05:40:50.364Z,94359.13
2022-09-10T05:43:18.249Z,94360.38
2022-09-10T05:45:47.214Z,94363.44
2022-09-10T05:48:15.314Z,94358.03
2022-09-10T05:50:45.707Z,94355.81
2022-09-10T05:53:13.902Z,94361.63
2022-09-10T05:55:41.879Z,94367.31
2022-09-10T05:58:13.668Z,94360.09
2022-09-10T06:00:44.011Z,94354.44
2022-09-10T06:03:12.756Z,94356.75
2022-09-10T06:05:40.696Z,94368.66
2022-09-10T06:08:09.187Z,94380.53
2022-09-10T06:10:37.441Z,94376.38
2022-09-10T06:13:07.220Z,94375.00
2022-09-10T06:15:59.063Z,94385.44
2022-09-10T06:18:27.022Z,94381.28
2022-09-10T06:21:07.019Z,94396.16
2022-09-10T06:23:36.163Z,94398.25
2022-09-10T06:26:05.941Z,94390.41
2022-09-10T06:28:34.305Z,94389.03
2022-09-10T06:31:04.795Z,94388.88
2022-09-10T06:33:33.726Z,94397.44
2022-09-10T06:36:03.392Z,94389.44
2022-09-10T06:38:33.680Z,94403.56
2022-09-10T06:41:04.794Z,94407.53
2022-09-10T06:43:36.367Z,94398.84
2022-09-10T06:46:32.029Z,94388.28
2022-09-10T06:49:01.014Z,94397.25
2022-09-10T06:51:29.523Z,94392.38
2022-09-10T06:53:57.865Z,94381.72
2022-09-10T06:56:26.103Z,94377.41
2022-09-10T06:58:54.051Z,94384.47
2022-09-10T07:01:25.705Z,94384.69
2022-09-10T07:03:57.715Z,94376.84
2022-09-10T07:06:26.856Z,94376.69
2022-09-10T07:08:56.628Z,94368.56
2022-09-10T07:11:25.917Z,94386.41
2022-09-10T07:13:54.894Z,94383.59
2022-09-10T07:16:32.321Z,94398.38
2022-09-10T07:19:01.603Z,94396.50
2022-09-10T07:21:30.348Z,94397.47
2022-09-10T07:24:01.223Z,94404.53
2022-09-10T07:26:29.795Z,94401.38
2022-09-10T07:28:59.336Z,94397.47
2022-09-10T07:31:30.497Z,94408.44
2022-09-10T07:33:59.190Z,94413.81
2022-09-10T07:36:28.254Z,94414.19
2022-09-10T07:38:58.015Z,94418.75
2022-09-10T07:41:30.287Z,94416.38
2022-09-10T07:43:58.932Z,94418.28
2022-09-10T07:46:28.680Z,94420.81
2022-09-10T07:48:58.896Z,94440.50
2022-09-10T07:51:29.249Z,94441.66
2022-09-10T07:53:58.913Z,94438.84
2022-09-10T07:56:26.939Z,94434.66
2022-09-10T07:58:57.889Z,94440.28
2022-09-10T08:01:26.091Z,94446.63
2022-09-10T08:03:59.275Z,94451.47
2022-09-10T08:06:27.281Z,94450.69
2022-09-10T08:08:55.237Z,94447.53
2022-09-10T08:11:23.303Z,94455.56
2022-09-10T08:13:52.964Z,94451.63
2022-09-10T08:16:23.039Z,94459.13
2022-09-10T08:18:51.955Z,94456.47
2022-09-10T08:21:21.601Z,94456.75
2022-09-10T08:23:51.154Z,94447.16
2022-09-10T08:26:20.048Z,94447.72
2022-09-10T08:28:48.628Z,94446.44
2022-09-10T08:31:18.274Z,94435.84
2022-09-10T08:33:50.566Z,94436.63
2022-09-10T08:36:19.060Z,94436.06
2022-09-10T08:38:48.685Z,94432.34
2022-09-10T08:41:28.426Z,94435.25
2022-09-10T08:44:01.168Z,94431.78
2022-09-10T08:46:33.495Z,94426.22
2022-09-10T08:49:07.840Z,94428.59
2022-09-10T08:51:44.107Z,94428.06
2022-09-10T08:54:18.453Z,94436.56
2022-09-10T08:56:48.952Z,94437.94
2022-09-10T08:59:23.012Z,94437.09
2022-09-10T09:01:56.461Z,94437.31
2022-09-10T09:04:41.497Z,94440.25
2022-09-10T09:07:15.360Z,94438.69
2022-09-10T09:09:44.959Z,94435.75
2022-09-10T09:12:22.772Z,94438.13
2022-09-10T09:15:06.874Z,94425.94
2022-09-10T09:17:52.310Z,94417.44
2022-09-10T09:20:31.737Z,94419.31
2022-09-10T09:23:13.173Z,94409.72
2022-09-10T09:25:49.084Z,94406.78
2022-09-10T09:28:29.878Z,94401.72
2022-09-10T09:31:01.485Z,94404.91
2022-09-10T09:33:31.468Z,94394.00
2022-09-10T09:36:03.008Z,94382.25
2022-09-10T09:38:35.460Z,94386.47
2022-09-10T09:41:16.142Z,94380.81
2022-09-10T09:43:54.292Z,94383.47
2022-09-10T09:46:24.375Z,94375.44
2022-09-10T09:48:57.539Z,94368.59
2022-09-10T09:51:27.759Z,94364.28
2022-09-10T09:54:34.664Z,94369.09
2022-09-10T09:56:52.321Z,94363.97
2022-09-10T09:59:28.188Z,94352.25
2022-09-10T10:01:59.849Z,94350.84
2022-09-10T10:04:31.389Z,94352.63
2022-09-10T10:07:00.888Z,94342.25
2022-09-10T10:09:30.773Z,94344.22
2022-09-10T10:12:02.372Z,94342.22
2022-09-10T10:14:39.628Z,94339.81
2022-09-10T10:17:44.893Z,94321.69
2022-09-10T10:20:14.604Z,94316.78
2022-09-10T10:22:44.031Z,94318.00
2022-09-10T10:25:38.313Z,94319.22
2022-09-10T10:28:16.540Z,94316.16
2022-09-10T10:30:45.414Z,94319.44
2022-09-10T10:33:19.655Z,94321.22
2022-09-10T10:35:51.681Z,94312.47
2022-09-10T10:38:40.295Z,94308.91
2022-09-10T10:41:27.292Z,94304.81
2022-09-10T10:44:12.734Z,94308.50
2022-09-10T10:46:48.644Z,94306.13
2022-09-10T10:49:27.216Z,94304.72
2022-09-10T10:52:07.079Z,94298.06
2022-09-10T10:54:59.513Z,94292.06
2022-09-10T10:57:40.353Z,94284.97
2022-09-10T11:00:14.641Z,94287.13
2022-09-10T11:02:49.722Z,94275.91
2022-09-10T11:05:25.756Z,94274.69
2022-09-10T11:07:56.438Z,94267.25
2022-09-10T11:10:30.767Z,94268.66
2022-09-10T11:13:06.894Z,94282.31
2022-09-10T11:15:49.559Z,94280.09
2022-09-10T11:18:22.703Z,94293.22
2022-09-10T11:21:04.200Z,94324.59
2022-09-10T11:23:39.090Z,94338.94
2022-09-10T11:26:15.097Z,94358.25
2022-09-10T11:28:57.249Z,94337.09
2022-09-10T15:40:25.448Z,94085.56
2022-09-10T15:42:55.104Z,94089.25
2022-09-10T15:45:23.193Z,94091.41
2022-09-10T15:47:52.001Z,94098.56
2022-09-10T15:50:20.299Z,94104.09
2022-09-10T15:52:48.437Z,94104.66
2022-09-10T15:55:16.908Z,94099.09
2022-09-10T15:57:44.876Z,94095.38
2022-09-10T16:00:15.282Z,94090.59
2022-09-10T16:02:43.863Z,94091.41
2022-09-10T16:05:12.529Z,94094.06
2022-09-10T16:07:40.531Z,94096.16
2022-09-10T16:10:09.261Z,94101.75
2022-09-10T16:12:37.332Z,94102.53
2022-09-10T16:15:06.009Z,94100.41
2022-09-10T16:17:35.989Z,94113.41
2022-09-10T16:20:04.652Z,94102.00
2022-09-10T16:22:32.652Z,94109.44
2022-09-10T16:25:00.753Z,94113.16
2022-09-10T16:27:28.732Z,94111.03
2022-09-10T16:29:56.859Z,94109.44
2022-09-10T16:32:25.758Z,94100.69
2022-09-10T16:34:56.114Z,94115.00
2022-09-10T16:37:26.295Z,94121.63
2022-09-10T16:39:55.007Z,94110.25
2022-09-10T16:42:23.269Z,94130.91
2022-09-10T16:44:51.285Z,94139.69
2022-09-10T16:47:19.252Z,94148.69
2022-09-10T16:49:47.267Z,94134.38
2022-09-10T16:52:16.841Z,94123.75
2022-09-10T16:54:46.136Z,94121.03
2022-09-10T16:57:14.270Z,94115.72
2022-09-10T16:59:42.342Z,94122.06
2022-09-10T17:02:12.013Z,94122.03
2022-09-10T17:04:40.049Z,94134.50
2022-09-10T17:07:09.638Z,94137.31
2022-09-10T17:09:40.439Z,94165.09
2022-09-10T17:12:10.646Z,94157.81
2022-09-10T17:14:39.678Z,94181.06
2022-09-10T17:17:07.684Z,94190.06
2022-09-10T17:19:35.631Z,94197.97
2022-09-10T17:22:03.730Z,94192.09
2022-09-10T17:24:31.737Z,94191.00
2022-09-10T17:27:02.518Z,94199.91
2022-09-10T17:29:33.270Z,94195.66
2022-09-10T17:32:01.400Z,94203.78
2022-09-10T17:34:29.545Z,94196.78
2022-09-10T17:36:57.786Z,94196.16
2022-09-10T17:39:28.431Z,94202.81
2022-09-10T17:41:56.889Z,94207.41
2022-09-10T17:44:26.994Z,94204.53
2022-09-10T17:46:55.428Z,94218.53
2022-09-10T17:49:24.541Z,94210.91
2022-09-10T17:51:53.232Z,94222.84
2022-09-10T17:54:22.113Z,94220.88
2022-09-10T17:56:50.148Z,94237.06
2022-09-10T17:59:18.692Z,94238.19
2022-09-10T18:01:48.413Z,94243.19
2022-09-10T18:04:16.988Z,94241.69
2022-09-10T18:06:48.930Z,94245.13
2022-09-10T18:09:19.734Z,94255.53
2022-09-10T18:11:47.852Z,94258.09
2022-09-10T18:14:18.575Z,94259.69
2022-09-10T18:16:48.213Z,94260.00
2022-09-10T18:19:19.288Z,94254.75
2022-09-10T18:21:48.736Z,94260.50
2022-09-10T18:24:18.173Z,94263.00
2022-09-10T18:26:49.356Z,94260.34
2022-09-10T18:29:20.126Z,94266.75
2022-09-10T18:31:51.666Z,94266.66
2022-09-10T18:34:24.017Z,94265.00
2022-09-10T18:36:54.936Z,94255.34
2022-09-10T18:39:25.408Z,94260.13
2022-09-10T18:41:53.905Z,94258.31
2022-09-10T18:44:23.977Z,94272.75
2022-09-10T18:46:54.290Z,94276.38
2022-09-10T18:49:26.192Z,94277.63
2022-09-10T18:51:55.926Z,94289.47
2022-09-10T18:54:25.513Z,94297.16
2022-09-10T18:56:54.055Z,94309.00
2022-09-10T18:59:24.313Z,94318.47
2022-09-10T19:01:55.996Z,94323.19
2022-09-10T19:04:26.788Z,94310.66
2022-09-10T19:06:55.340Z,94319.38
2022-09-10T19:09:24.880Z,94312.75
2022-09-10T19:11:54.806Z,94314.19
2022-09-10T19:14:26.378Z,94317.94
2022-09-10T19:16:56.512Z,94304.91
2022-09-10T19:19:26.297Z,94304.59
2022-09-10T19:21:57.125Z,94295.81
2022-09-10T19:24:44.183Z,94294.22
2022-09-10T19:27:14.433Z,94295.25
2022-09-10T19:29:43.139Z,94296.22
2022-09-10T19:32:14.636Z,94290.78
2022-09-10T19:34:42.815Z,94291.19
2022-09-10T19:37:10.848Z,94281.28
2022-09-10T19:39:39.039Z,94264.31
2022-09-10T19:42:07.612Z,94261.13
2022-09-10T19:44:35.611Z,94255.75
2022-09-10T19:47:04.482Z,94251.75
2022-09-10T19:49:34.298Z,94259.34
2022-09-10T19:52:04.381Z,94256.16
2022-09-10T19:54:32.485Z,94256.97
2022-09-10T19:57:00.774Z,94262.31
2022-09-10T19:59:28.798Z,94260.53
2022-09-10T20:01:56.946Z,94263.50
2022-09-10T20:04:25.676Z,94258.63
2022-09-10T20:06:55.365Z,94269.84
2022-09-10T20:09:23.471Z,94287.03
2022-09-10T20:11:51.469Z,94287.50
2022-09-10T20:14:20.445Z,94281.19
2022-09-10T20:16:48.543Z,94291.66
2022-09-10T20:19:22.588Z,94297.56
2022-09-10T20:21:51.560Z,94297.19
2022-09-10T20:24:21.066Z,94301.63
2022-09-10T20:26:49.594Z,94312.91
2022-09-10T20:29:19.480Z,94296.09
2022-09-10T20:31:48.577Z,94308.16
2022-09-10T20:34:19.490Z,94312.09
2022-09-10T20:36:48.697Z,94315.13
2022-09-10T20:39:18.629Z,94310.53
2022-09-10T20:41:48.826Z,94327.53
2022-09-10T20:44:18.205Z,94307.75
2022-09-10T20:46:46.229Z,94320.38
2022-09-10T20:49:16.501Z,94308.03
2022-09-10T20:51:45.953Z,94309.53
2022-09-10T20:54:15.592Z,94309.41
2022-09-10T20:56:44.381Z,94303.38
2022-09-10T20:59:16.025Z,94308.63
2022-09-10T21:01:46.435Z,94308.16
2022-09-10T21:04:14.871Z,94303.22
2022-09-10T21:06:42.943Z,94317.78
2022-09-10T21:09:11.427Z,94309.63
2022-09-10T21:11:39.724Z,94309.72
2022-09-10T21:14:09.305Z,94317.97
2022-09-10T21:16:41.408Z,94315.69
2022-09-10T21:19:12.030Z,94321.78
2022-09-10T21:21:41.380Z,94304.00
2022-09-10T21:24:12.494Z,94318.78
2022-09-10T21:26:43.025Z,94334.25
2022-09-10T21:29:14.463Z,94321.78
2022-09-10T21:31:45.326Z,94332.44
2022-09-10T21:34:14.011Z,94334.84
2022-09-10T21:36:43.785Z,94317.78
2022-09-10T21:39:15.221Z,94340.44
2022-09-10T21:41:45.269Z,94340.31
2022-09-10T21:44:15.229Z,94336.50
2022-09-10T21:46:46.014Z,94337.63
2022-09-10T21:49:14.520Z,94342.38
2022-09-10T21:51:43.149Z,94353.16
2022-09-10T21:54:15.180Z,94352.59
2022-09-10T21:56:43.144Z,94351.34
2022-09-10T21:59:12.082Z,94353.41
2022-09-10T22:01:42.120Z,94346.97
2022-09-10T22:04:12.334Z,94340.81
2022-09-10T22:06:40.644Z,94342.75
2022-09-10T22:09:11.914Z,94336.91
2022-09-10T22:11:41.957Z,94354.53
2022-09-10T22:14:14.552Z,94352.84
2022-09-10T22:16:42.882Z,94349.59
2022-09-10T22:19:15.265Z,94338.88
2022-09-10T22:21:43.234Z,94326.53
2022-09-10T22:24:13.567Z,94325.47
2022-09-10T22:26:43.433Z,94337.25
2022-09-10T22:29:12.864Z,94338.19
2022-09-10T22:31:40.908Z,94328.53
2022-09-10T22:34:11.427Z,94346.97
2022-09-10T22:36:42.375Z,94343.44
2022-09-10T22:39:13.146Z,94348.91
2022-09-10T22:41:42.239Z,94344.72
2022-09-10T22:44:10.499Z,94359.22
2022-09-10T22:46:40.085Z,94359.13
2022-09-10T22:49:08.644Z,94360.59
2022-09-10T22:51:38.532Z,94353.50
2022-09-10T22:54:08.983Z,94361.97
2022-09-10T22:56:37.330Z,94350.66
2022-09-10T22:59:08.154Z,94349.59
2022-09-10T23:01:38.268Z,94346.97
2022-09-10T23:04:09.426Z,94336.91
2022-09-10T23:06:39.627Z,94332.78
2022-09-10T23:09:12.055Z,94334.63
2022-09-10T23:11:40.805Z,94323.75
2022-09-10T23:14:11.585Z,94328.44
2022-09-10T23:16:41.968Z,94325.03
2022-09-10T23:19:13.139Z,94321.81
2022-09-10T23:21:43.053Z,94317.22
2022-09-10T23:24:15.049Z,94322.72
2022-09-10T23:26:43.950Z,94314.69
2022-09-10T23:29:12.956Z,94316.75
2022-09-10T23:31:41.861Z,94324.88
2022-09-10T23:34:12.351Z,94327.97
2022-09-10T23:36:42.503Z,94325.00
2022-09-10T23:39:16.634Z,94328.88
2022-09-10T23:41:44.968Z,94328.66
2022-09-10T23:44:13.375Z,94330.50
2022-09-10T23:46:41.399Z,94324.41
2022-09-10T23:49:09.376Z,94326.59
2022-09-10T23:51:37.717Z,94318.59
2022-09-10T23:54:05.954Z,94318.47
2022-09-10T23:56:37.699Z,94314.00
2022-09-10T23:59:05.972Z,94323.50
